Time;durP1;ratioP1;P1;durP2;ratioP2;P2;SDS_P1;SDS_P2;PMS_P1;PMS_P2;Temp;Humidity;BMP_temperature;BMP_pressure;BME280_temperature;BME280_humidity;BME280_pressure;Samples;Min_cycle;Max_cycle;Signal;HPM_P1;HPM_P2
2022/05/12 00:01:08;;;;;;;12.73;7.00;;;;;;;12.64;54.84;101275.91;1735474;82;25797;-58
2022/05/12 00:03:35;;;;;;;12.53;7.45;;;;;;;12.61;54.85;101279.38;1735362;82;25835;-58
2022/05/12 00:06:03;;;;;;;19.15;7.83;;;;;;;12.58;54.92;101282.37;1735385;82;25748;-58
2022/05/12 00:08:31;;;;;;;16.82;7.22;;;;;;;12.55;55.02;101287.52;1735416;82;27445;-58
2022/05/12 00:11:16;;;;;;;17.32;7.10;;;;;;;12.51;55.20;101280.70;1735380;82;25784;-58
2022/05/12 00:13:43;;;;;;;18.42;7.05;;;;;;;12.46;55.63;101276.22;1733229;82;25774;-58
2022/05/12 00:16:28;;;;;;;16.17;7.47;;;;;;;12.41;55.53;101277.11;1730539;82;25645;-59
2022/05/12 00:18:56;;;;;;;16.67;6.95;;;;;;;12.37;55.64;101271.13;1730604;82;25900;-58
2022/05/12 00:21:41;;;;;;;15.25;7.03;;;;;;;12.36;55.87;101273.47;1730647;82;27516;-58
2022/05/12 00:24:10;;;;;;;12.65;6.20;;;;;;;12.35;56.02;101271.75;1730587;82;43210;-58
2022/05/12 00:26:37;;;;;;;17.87;6.60;;;;;;;12.31;56.84;101273.87;1730891;81;25828;-58
2022/05/12 00:29:07;;;;;;;11.38;5.78;;;;;;;12.31;56.82;101275.22;1730655;81;26011;-58
2022/05/12 00:31:40;;;;;;;18.57;7.22;;;;;;;12.32;56.93;101279.63;1730904;81;25772;-58
2022/05/12 00:34:08;;;;;;;;;;;;;;;12.31;57.29;101279.78;1733243;82;27514;-58
2022/05/12 00:36:53;;;;;;;16.73;6.40;;;;;;;12.29;56.87;101279.89;1730694;82;25762;-58
2022/05/12 00:39:39;;;;;;;18.62;6.45;;;;;;;12.31;57.00;101273.87;1730914;82;25540;-58
2022/05/12 00:42:07;;;;;;;15.93;6.90;;;;;;;12.33;57.23;101275.95;1734202;82;25717;-58
2022/05/12 00:44:34;;;;;;;16.40;6.70;;;;;;;12.36;57.18;101277.52;1738109;81;25671;-58
2022/05/12 00:47:01;;;;;;;17.27;7.05;;;;;;;12.39;57.31;101270.98;1732811;80;27459;-58
2022/05/12 00:49:38;;;;;;;16.80;6.50;;;;;;;12.42;57.40;101274.27;1730627;82;26020;-58
2022/05/12 00:52:15;;;;;;;15.48;6.35;;;;;;;12.46;57.54;101273.02;1730711;82;25674;-58
2022/05/12 00:55:02;;;;;;;21.75;7.25;;;;;;;12.49;57.67;101260.61;1730862;81;25819;-58
2022/05/12 00:57:39;;;;;;;15.55;6.20;;;;;;;12.50;57.47;101263.67;1731141;82;25888;-58
2022/05/12 01:00:11;;;;;;;14.38;6.62;;;;;;;12.52;57.46;101265.72;1730688;82;27555;-59
2022/05/12 01:02:40;;;;;;;14.93;7.67;;;;;;;12.50;57.25;101263.67;1731234;82;25864;-58
2022/05/12 01:05:08;;;;;;;15.78;7.33;;;;;;;12.47;57.05;101259.89;1730730;81;25819;-58
2022/05/12 01:07:36;;;;;;;17.30;8.20;;;;;;;12.44;57.12;101272.80;1731073;82;25883;-58
2022/05/12 01:10:08;;;;;;;17.55;7.47;;;;;;;12.40;57.01;101260.08;1730729;81;25662;-58
2022/05/12 01:12:38;;;;;;;13.50;5.87;;;;;;;12.34;57.12;101261.47;1730842;82;27540;-57
2022/05/12 01:15:08;;;;;;;17.35;6.65;;;;;;;12.29;57.07;101263.70;1730680;82;25761;-58
2022/05/12 01:17:35;;;;;;;10.72;6.37;;;;;;;12.19;57.23;101260.14;1730945;82;25737;-58
2022/05/12 01:20:01;;;;;;;17.87;6.80;;;;;;;12.01;57.49;101256.69;1730401;82;26820;-59
2022/05/12 01:22:54;;;;;;;15.95;6.65;;;;;;;11.89;57.79;101263.97;1730702;82;25748;-58
2022/05/12 01:25:26;;;;;;;15.00;6.35;;;;;;;11.80;58.30;101259.88;1730814;82;28136;-59
2022/05/12 01:27:54;;;;;;;26.37;6.78;;;;;;;11.74;58.30;101263.45;1730361;81;25772;-58
2022/05/12 01:30:23;;;;;;;16.52;6.85;;;;;;;11.70;58.51;101264.71;1731077;81;25832;-58
2022/05/12 01:32:51;;;;;;;16.27;6.17;;;;;;;11.66;58.23;101265.11;1733410;80;25791;-59
2022/05/12 01:35:24;;;;;;;16.10;6.42;;;;;;;11.65;58.24;101265.61;1735458;82;25540;-58
2022/05/12 01:37:52;;;;;;;17.90;6.37;;;;;;;11.62;58.25;101269.03;1735494;82;28208;-58
2022/05/12 01:40:24;;;;;;;10.93;5.85;;;;;;;11.61;58.27;101266.84;1735569;82;25445;-58
2022/05/12 01:42:53;;;;;;;15.18;6.25;;;;;;;11.56;58.50;101269.09;1740242;82;25544;-58
2022/05/12 01:45:21;;;;;;;14.55;5.37;;;;;;;11.48;58.78;101271.08;1742131;80;26454;-58
2022/05/12 01:47:50;;;;;;;12.45;6.45;;;;;;;11.43;58.93;101271.94;1775520;79;25742;-58
2022/05/12 01:50:19;;;;;;;12.45;5.62;;;;;;;11.34;58.86;101270.89;1775047;80;27615;-58
2022/05/12 01:52:46;;;;;;;15.03;6.08;;;;;;;11.31;58.85;101272.99;1775314;80;25740;-58
2022/05/12 01:55:19;;;;;;;12.37;6.10;;;;;;;11.26;59.09;101269.34;1775185;80;25687;-58
2022/05/12 01:57:47;;;;;;;15.05;5.47;;;;;;;11.22;59.45;101267.39;1775424;80;34736;-58
2022/05/12 02:00:19;;;;;;;18.30;5.10;;;;;;;11.20;59.95;101269.36;1775038;80;25779;-58
2022/05/12 02:02:47;;;;;;;17.42;5.50;;;;;;;11.18;60.13;101268.63;1774881;80;28516;-58
2022/05/12 02:05:14;;;;;;;16.48;5.45;;;;;;;11.14;60.65;101271.22;1775133;80;25753;-58
2022/05/12 02:07:45;;;;;;;20.25;5.87;;;;;;;11.16;60.79;101275.13;1775610;79;25483;-58
2022/05/12 02:10:17;;;;;;;15.70;5.25;;;;;;;11.18;60.69;101277.20;1775023;80;25770;-58
2022/05/12 02:12:44;;;;;;;10.13;5.15;;;;;;;11.22;61.17;101285.38;1772545;80;25687;-58
2022/05/12 02:15:12;;;;;;;14.38;5.62;;;;;;;11.23;60.90;101279.88;1732896;82;27482;-58
2022/05/12 02:17:40;;;;;;;16.30;6.28;;;;;;;11.25;61.09;101279.75;1732833;82;25467;-58
2022/05/12 02:20:10;;;;;;;20.30;5.75;;;;;;;11.27;61.20;101279.13;1732919;82;25724;-58
2022/05/12 02:22:37;;;;;;;11.83;5.62;;;;;;;11.32;61.30;101284.14;1733046;81;25772;-58
2022/05/12 02:25:07;;;;;;;10.60;5.80;;;;;;;11.34;61.42;101281.67;1732765;81;25821;-58
2022/05/12 02:27:34;;;;;;;11.78;5.33;;;;;;;11.35;61.54;101286.08;1733027;81;27588;-58
2022/05/12 02:30:01;;;;;;;19.40;6.65;;;;;;;11.38;61.73;101282.27;1732715;81;26477;-58
2022/05/12 02:32:28;;;;;;;16.67;6.37;;;;;;;11.43;61.74;101289.45;1732978;81;25819;-57
2022/05/12 02:34:56;;;;;;;11.10;5.40;;;;;;;11.44;62.09;101289.82;1732663;82;26623;-58
2022/05/12 02:37:24;;;;;;;19.92;7.12;;;;;;;11.40;62.11;101287.87;1736684;81;25716;-58
2022/05/12 02:39:51;;;;;;;19.20;5.85;;;;;;;11.39;61.66;101288.02;1732771;82;28156;-58
2022/05/12 02:42:18;;;;;;;26.00;6.15;;;;;;;11.40;61.84;101289.73;1732548;82;25872;-58
2022/05/12 02:44:45;;;;;;;15.65;6.00;;;;;;;11.41;61.69;101285.55;1742322;81;25764;-58
2022/05/12 02:47:12;;;;;;;11.15;5.65;;;;;;;11.42;61.50;101285.92;1768085;80;25763;-58
2022/05/12 02:49:39;;;;;;;15.00;5.47;;;;;;;11.42;61.34;101296.69;1774680;80;25763;-58
2022/05/12 02:52:07;;;;;;;19.98;6.72;;;;;;;11.38;61.05;101290.34;1774912;80;28456;-58
2022/05/12 02:54:35;;;;;;;11.55;5.03;;;;;;;11.36;61.04;101285.09;1757032;80;25775;-58
2022/05/12 02:57:02;;;;;;;18.02;5.22;;;;;;;11.33;61.06;101291.23;1732720;81;25763;-58
2022/05/12 02:59:29;;;;;;;13.22;6.00;;;;;;;11.28;61.56;101294.31;1732518;82;25796;-58
2022/05/12 03:01:58;;;;;;;13.62;5.62;;;;;;;11.17;61.26;101305.95;1732656;82;26721;-58
2022/05/12 03:04:26;;;;;;;16.55;5.17;;;;;;;11.09;61.44;101301.22;1732797;82;28185;-58
2022/05/12 03:06:53;;;;;;;12.15;4.95;;;;;;;11.01;61.18;101302.34;1732792;81;25816;-58
2022/05/12 03:09:20;;;;;;;11.73;5.12;;;;;;;10.92;61.38;101299.91;1732452;82;25761;-58
2022/05/12 03:11:48;;;;;;;9.58;4.50;;;;;;;10.87;61.47;101307.52;1732987;82;25891;-59
2022/05/12 03:14:15;;;;;;;18.52;6.03;;;;;;;10.82;61.36;101300.28;1732647;82;25785;-58
2022/05/12 03:16:42;;;;;;;9.63;4.37;;;;;;;10.80;61.41;101300.92;1733219;82;27595;-58
2022/05/12 03:19:10;;;;;;;17.30;5.15;;;;;;;10.79;61.81;101302.75;1732647;82;25904;-58
2022/05/12 03:21:37;;;;;;;15.78;4.97;;;;;;;10.79;61.52;101307.28;1733068;82;25793;-58
2022/05/12 03:24:05;;;;;;;15.63;4.70;;;;;;;10.78;61.66;101305.57;1732747;82;26726;-58
2022/05/12 03:26:32;;;;;;;18.07;5.22;;;;;;;10.78;62.14;101309.61;1733004;82;25502;-58
2022/05/12 03:28:59;;;;;;;20.23;4.80;;;;;;;10.74;62.19;101310.34;1732730;82;27537;-58
2022/05/12 03:31:26;;;;;;;21.55;5.65;;;;;;;10.79;62.11;101305.44;1733961;81;25775;-58
2022/05/12 03:33:52;;;;;;;14.63;4.37;;;;;;;10.87;62.27;101308.86;1773915;80;25759;-58
2022/05/12 03:36:19;;;;;;;10.35;5.37;;;;;;;10.89;63.12;101309.56;1775211;79;26526;-58
2022/05/12 03:38:46;;;;;;;13.50;4.87;;;;;;;10.92;62.91;101315.22;1774818;80;25728;-57
2022/05/12 03:41:13;;;;;;;27.62;4.50;;;;;;;10.99;62.98;101320.93;1770710;80;27553;-58
2022/05/12 03:46:25;;;;;;;13.50;4.92;;;;;;;11.12;63.47;101321.65;1739436;82;25690;-58
2022/05/12 03:48:52;;;;;;;17.95;5.30;;;;;;;11.21;63.33;101322.71;1735492;82;26577;-58
2022/05/12 03:51:19;;;;;;;16.67;4.85;;;;;;;11.33;63.34;101319.02;1735367;82;25681;-58
2022/05/12 03:53:46;;;;;;;12.25;4.42;;;;;;;11.47;63.27;101331.33;1735076;82;27537;-58
2022/05/12 03:56:12;;;;;;;18.05;5.47;;;;;;;11.58;63.07;101326.38;1734991;82;25792;-58
2022/05/12 03:58:39;;;;;;;20.43;5.40;;;;;;;11.68;63.00;101322.44;1735404;82;25772;-58
2022/05/12 04:01:09;;;;;;;12.28;4.80;;;;;;;11.79;63.02;101327.74;1734960;82;25814;-58
2022/05/12 04:03:36;;;;;;;12.25;4.58;;;;;;;11.89;62.76;101324.63;1735514;82;26169;-58
2022/05/12 04:06:06;;;;;;;20.43;5.30;;;;;;;11.97;62.52;101324.49;1734897;82;27403;-58
2022/05/12 04:08:34;;;;;;;17.42;5.10;;;;;;;12.07;62.11;101326.77;1735186;82;26055;-58
2022/05/12 04:11:00;;;;;;;15.88;5.17;;;;;;;12.14;61.80;101328.44;1735166;82;25672;-58
2022/05/12 04:13:27;;;;;;;18.65;5.78;;;;;;;12.22;61.53;101335.37;1734983;82;25839;-58
2022/05/12 04:15:55;;;;;;;15.23;5.90;;;;;;;12.27;61.39;101329.10;1735113;81;25811;-57
2022/05/12 04:18:22;;;;;;;21.15;5.80;;;;;;;12.35;61.23;101327.06;1734932;82;28529;-58
2022/05/12 04:20:49;;;;;;;33.50;5.65;;;;;;;12.41;61.16;101334.64;1735240;82;25700;-58
2022/05/12 04:23:16;;;;;;;20.97;6.03;;;;;;;12.46;61.29;101332.37;1712106;82;25863;-58
2022/05/12 04:25:43;;;;;;;20.08;5.95;;;;;;;12.49;61.03;101333.47;1735074;82;25809;-58
2022/05/12 04:28:09;;;;;;;30.88;6.20;;;;;;;12.52;60.92;101331.83;1735529;82;26505;-58
2022/05/12 04:30:38;;;;;;;19.87;6.40;;;;;;;12.58;60.82;101337.70;1735707;82;27465;-58
2022/05/12 04:35:51;;;;;;;30.52;6.97;;;;;;;12.70;60.79;101347.39;1732867;82;25701;-58
2022/05/12 04:38:18;;;;;;;33.60;6.70;;;;;;;12.76;60.71;101346.86;1732827;81;26579;-58
2022/05/12 04:40:45;;;;;;;32.45;6.60;;;;;;;12.82;60.73;101349.01;1733091;82;26028;-58
2022/05/12 04:43:12;;;;;;;41.65;6.95;;;;;;;12.89;60.66;101348.45;1737225;82;27424;-58
2022/05/12 04:45:40;;;;;;;39.18;7.17;;;;;;;12.96;60.64;101348.25;1736660;80;27364;-59
2022/05/12 04:48:08;;;;;;;39.25;7.42;;;;;;;13.03;60.39;101341.33;1733246;81;25694;-58
2022/05/12 04:50:40;;;;;;;60.52;9.35;;;;;;;13.09;60.30;101340.77;1733070;81;26696;-58
2022/05/12 04:53:08;;;;;;;39.03;7.60;;;;;;;13.14;60.04;101345.25;1732909;82;25814;-59
2022/05/12 04:55:36;;;;;;;49.18;8.68;;;;;;;13.22;60.09;101349.96;1732991;82;27607;-58
2022/05/12 04:58:03;;;;;;;51.88;9.70;;;;;;;13.28;59.73;101348.55;1732597;81;25773;-58
2022/05/12 05:00:40;;;;;;;49.93;9.00;;;;;;;13.35;59.78;101350.20;1732643;81;25824;-58
2022/05/12 05:03:07;;;;;;;46.18;9.68;;;;;;;13.41;59.96;101348.31;1732704;81;26600;-58
2022/05/12 05:05:35;;;;;;;45.00;8.58;;;;;;;13.46;59.87;101348.25;1733384;81;25733;-58
2022/05/12 05:08:04;;;;;;;48.83;10.53;;;;;;;13.53;60.00;101355.31;1732848;82;27478;-58
2022/05/12 05:10:32;;;;;;;67.22;11.28;;;;;;;13.60;59.78;101358.27;1732734;82;25745;-59
2022/05/12 05:13:00;;;;;;;38.75;9.80;;;;;;;13.64;59.63;101354.31;1710191;82;25806;-58
2022/05/12 05:15:27;;;;;;;63.92;15.32;;;;;;;13.70;59.54;101351.54;1731487;80;25830;-59
2022/05/12 05:17:54;;;;;;;51.02;10.75;;;;;;;13.78;59.40;101353.86;1730849;82;25491;-58
2022/05/12 05:20:26;;;;;;;50.38;10.10;;;;;;;13.88;59.34;101355.71;1730659;82;27618;-59
2022/05/12 05:22:53;;;;;;;56.65;9.30;;;;;;;13.96;59.01;101355.00;1730810;81;25826;-58
2022/05/12 05:25:21;;;;;;;46.37;9.95;;;;;;;14.02;58.92;101353.06;1730793;82;25696;-58
2022/05/12 05:27:50;;;;;;;52.03;9.65;;;;;;;14.09;58.80;101351.48;1730742;82;25852;-59
2022/05/12 05:30:22;;;;;;;99.42;11.55;;;;;;;14.16;58.59;101344.52;1731873;82;25784;-58
2022/05/12 05:32:49;;;;;;;40.30;10.53;;;;;;;14.24;58.53;101351.41;1736251;81;27442;-58
2022/05/12 05:35:16;;;;;;;73.55;10.08;;;;;;;14.32;58.37;101353.36;1730578;82;25744;-58
2022/05/12 05:37:45;;;;;;;56.98;10.82;;;;;;;14.42;58.12;101357.89;1730861;81;25664;-58
2022/05/12 05:40:14;;;;;;;56.80;9.75;;;;;;;14.49;57.86;101349.05;1730564;81;26488;-58
2022/05/12 05:42:44;;;;;;;56.35;9.98;;;;;;;14.59;57.64;101349.51;1738761;82;26459;-58
2022/05/12 05:45:15;;;;;;;48.05;9.70;;;;;;;14.66;57.49;101350.12;1741317;82;27454;-59
2022/05/12 05:47:58;;;;;;;59.65;11.22;;;;;;;14.79;57.48;101346.23;1712162;83;25853;-59
2022/05/12 05:55:50;;;;;;;34.78;9.23;;;;;;;15.12;56.94;101341.20;1679740;85;25830;-59
2022/05/12 05:58:17;;;;;;;44.00;11.25;;;;;;;15.21;56.61;101340.28;1679817;85;27617;-59
2022/05/12 06:00:45;;;;;;;44.35;10.23;;;;;;;15.31;56.48;101338.37;1679519;85;25728;-59
2022/05/12 06:03:13;;;;;;;72.65;11.30;;;;;;;15.42;56.53;101344.06;1679677;85;25812;-59
2022/05/12 06:05:41;;;;;;;44.50;10.03;;;;;;;15.54;56.62;101334.34;1681976;83;25898;-59
2022/05/12 06:08:12;;;;;;;48.65;11.05;;;;;;;15.65;56.40;101332.25;1679527;85;25850;-59
2022/05/12 06:10:40;;;;;;;61.18;10.63;;;;;;;15.75;56.30;101330.83;1650575;86;27456;-58
2022/05/12 06:13:08;;;;;;;51.53;11.57;;;;;;;15.89;56.03;101325.86;1679495;85;25720;-59
2022/05/12 06:15:35;;;;;;;46.40;9.38;;;;;;;16.08;55.32;101322.12;1652180;84;25790;-59
2022/05/12 06:18:12;;;;;;;47.58;10.30;;;;;;;16.26;55.34;101323.41;1689527;83;26469;-59
2022/05/12 06:20:41;;;;;;;44.75;8.63;;;;;;;16.40;54.91;101330.11;1721037;83;25738;-58
2022/05/12 06:23:10;;;;;;;30.68;9.15;;;;;;;16.54;54.37;101318.63;1699905;83;27451;-59
2022/05/12 06:25:37;;;;;;;32.90;9.30;;;;;;;16.68;53.89;101321.77;1694272;83;25940;-59
2022/05/12 06:28:05;;;;;;;44.85;10.30;;;;;;;16.83;53.69;101318.77;1706230;82;25742;-59
2022/05/12 06:30:33;;;;;;;38.75;9.63;;;;;;;16.98;53.58;101314.11;1712043;82;26377;-59
2022/05/12 06:33:01;;;;;;;54.67;9.30;;;;;;;17.13;53.24;101315.65;1733043;82;25752;-59
2022/05/12 06:35:28;;;;;;;31.37;7.80;;;;;;;17.26;52.77;101311.95;1705580;83;27597;-59
2022/05/12 06:37:56;;;;;;;43.28;8.78;;;;;;;17.39;52.14;101310.63;1706503;83;25694;-59
2022/05/12 06:40:22;;;;;;;26.80;6.58;;;;;;;17.49;52.23;101304.48;1706030;83;25723;-58
2022/05/12 06:42:50;;;;;;;24.45;5.97;;;;;;;17.60;51.84;101301.97;1726835;82;25779;-58
2022/05/12 06:45:20;;;;;;;27.35;5.80;;;;;;;17.76;50.82;101306.53;1697107;84;25680;-59
2022/05/12 06:47:50;;;;;;;22.67;5.35;;;;;;;17.92;49.88;101302.47;1703161;83;28393;-58
2022/05/12 06:50:25;;;;;;;37.70;6.22;;;;;;;18.08;49.83;101307.05;1698099;83;25804;-59
2022/05/12 06:52:53;;;;;;;27.87;6.90;;;;;;;18.27;49.35;101304.48;1717405;83;25681;-59
2022/05/12 06:55:24;;;;;;;33.18;5.67;;;;;;;18.44;49.11;101299.81;1724514;83;25813;-58
2022/05/12 06:57:51;;;;;;;31.87;5.60;;;;;;;18.58;48.52;101305.57;1724662;83;25840;-58
2022/05/12 07:00:20;;;;;;;29.30;5.92;;;;;;;18.69;48.81;101303.80;1721792;82;27318;-58
2022/05/12 07:02:48;;;;;;;22.62;6.22;;;;;;;18.82;48.78;101306.48;1707260;82;25826;-59
2022/05/12 07:05:20;;;;;;;33.38;5.08;;;;;;;18.95;48.51;101301.34;1710243;83;25779;-59
2022/05/12 07:07:47;;;;;;;13.98;4.62;;;;;;;19.10;47.53;101297.31;1710319;83;26598;-59
2022/05/12 07:10:17;;;;;;;11.75;4.12;;;;;;;19.23;46.65;101298.08;1706977;83;25828;-59
2022/05/12 07:12:44;;;;;;;8.88;3.60;;;;;;;19.36;46.16;101295.63;1703696;84;28086;-59
2022/05/12 07:15:13;;;;;;;14.55;4.33;;;;;;;19.52;45.75;101298.75;1702242;83;25726;-59
2022/05/12 07:17:43;;;;;;;18.32;3.83;;;;;;;19.70;45.81;101291.59;1697835;83;25816;-59
2022/05/12 07:28:34;;;;;;;11.40;3.25;;;;;;;20.29;44.25;101291.90;1708782;83;25543;-59
2022/05/12 07:31:02;;;;;;;12.85;3.72;;;;;;;20.40;43.34;101293.30;1716654;82;25792;-59
2022/05/12 07:33:33;;;;;;;19.42;2.90;;;;;;;20.52;43.06;101289.60;1704798;82;26441;-58
2022/05/12 07:36:03;;;;;;;10.55;3.55;;;;;;;20.63;42.63;101294.06;1703151;84;25939;-58
2022/05/12 07:38:31;;;;;;;8.43;3.27;;;;;;;20.75;42.52;101290.35;1704128;84;27547;-59
2022/05/12 07:40:57;;;;;;;15.70;3.83;;;;;;;20.83;42.40;101288.04;1738667;80;25784;-59
2022/05/12 07:43:24;;;;;;;6.25;2.83;;;;;;;20.93;42.66;101292.66;1739789;81;25739;-59
2022/05/12 07:45:51;;;;;;;13.13;2.90;;;;;;;21.08;41.83;101291.78;1750814;80;28015;-59
2022/05/12 07:48:19;;;;;;;10.90;3.02;;;;;;;21.22;40.68;101287.31;1780689;80;26016;-59
2022/05/12 07:50:46;;;;;;;11.63;3.05;;;;;;;21.28;40.77;101285.16;1780206;80;27467;-59
2022/05/12 07:53:13;;;;;;;10.55;2.90;;;;;;;21.40;40.33;101292.31;1763339;80;25739;-59
2022/05/12 07:55:40;;;;;;;7.25;3.02;;;;;;;21.50;39.53;101294.21;1759113;81;25700;-59
2022/05/12 07:58:07;;;;;;;6.47;2.70;;;;;;;21.65;38.51;101290.06;1751851;81;25954;-59
2022/05/12 08:00:35;;;;;;;9.45;2.65;;;;;;;21.78;38.97;101289.86;1735603;82;25466;-59
2022/05/12 08:03:03;;;;;;;10.20;3.95;;;;;;;21.87;38.86;101287.30;1740544;81;27550;-59
2022/05/12 08:05:30;;;;;;;10.08;2.60;;;;;;;22.02;38.15;101291.28;1742654;81;26153;-59
2022/05/12 08:07:57;;;;;;;7.90;2.75;;;;;;;22.20;38.42;101286.69;1742712;82;25656;-58
2022/05/12 08:10:24;;;;;;;10.82;3.12;;;;;;;22.35;38.46;101290.68;1741843;82;25790;-58
2022/05/12 08:12:51;;;;;;;9.48;2.95;;;;;;;22.46;37.31;101281.06;1737942;81;25792;-59
2022/05/12 08:15:18;;;;;;;10.32;3.15;;;;;;;22.57;37.61;101281.00;1735165;82;27519;-59
2022/05/12 08:17:46;;;;;;;11.93;2.92;;;;;;;22.71;38.15;101277.80;1742286;81;25905;-59
2022/05/12 08:20:13;;;;;;;11.50;3.55;;;;;;;22.84;38.21;101276.48;1742920;82;25476;-59
2022/05/12 08:22:41;;;;;;;8.65;2.80;;;;;;;22.99;37.58;101279.08;1747613;80;25850;-59
2022/05/12 08:25:09;;;;;;;14.85;2.80;;;;;;;23.09;37.29;101282.23;1742253;82;25692;-58
2022/05/12 08:27:36;;;;;;;10.05;2.87;;;;;;;23.19;36.77;101275.54;1742388;82;27588;-59
2022/05/12 08:30:08;;;;;;;13.55;3.17;;;;;;;23.29;36.03;101268.61;1742223;82;25467;-59
2022/05/12 08:32:34;;;;;;;5.40;2.52;;;;;;;23.32;35.92;101270.09;1759202;79;25482;-59
2022/05/12 08:35:02;;;;;;;9.95;2.90;;;;;;;23.47;36.40;101263.03;1780485;80;25971;-59
2022/05/12 08:37:29;;;;;;;11.43;3.02;;;;;;;23.59;36.33;101258.58;1780255;79;25758;-59
2022/05/12 08:39:56;;;;;;;17.42;2.90;;;;;;;23.72;36.12;101264.60;1780361;79;27447;-59
2022/05/12 08:42:43;;;;;;;10.63;3.05;;;;;;;23.84;35.77;101262.59;1754692;79;25732;-59
2022/05/12 08:45:17;;;;;;;11.43;2.80;;;;;;;24.02;35.00;101257.32;1735353;82;25829;-59
2022/05/12 08:47:48;;;;;;;12.33;2.92;;;;;;;24.21;34.82;101258.87;1713992;83;26479;-59
2022/05/12 08:50:23;;;;;;;10.28;3.00;;;;;;;24.38;34.92;101249.63;1686056;84;25801;-59
2022/05/12 08:53:05;;;;;;;20.43;2.67;;;;;;;24.54;34.59;101246.91;1705835;82;28281;-59
2022/05/12 08:55:44;;;;;;;11.18;2.67;;;;;;;24.74;33.58;101250.13;1712694;83;25840;-58
2022/05/12 08:58:33;;;;;;;10.53;3.22;;;;;;;24.89;33.29;101249.85;1712617;82;25746;-59
2022/05/12 09:01:11;;;;;;;9.40;3.25;;;;;;;25.00;33.86;101247.23;1712614;82;25805;-59
2022/05/12 09:04:16;;;;;;;23.60;3.42;;;;;;;25.19;33.09;101244.58;1679837;83;25845;-59
2022/05/12 09:06:57;;;;;;;9.68;2.70;;;;;;;25.38;33.59;101237.77;1677325;85;27731;-59
2022/05/12 09:09:50;;;;;;;10.28;2.85;;;;;;;25.67;32.81;101238.20;1677117;85;25742;-59
2022/05/12 09:12:37;;;;;;;8.48;2.87;;;;;;;25.94;31.31;101242.39;1677413;85;32585;-59
2022/05/12 09:15:12;;;;;;;7.55;3.10;;;;;;;26.17;31.34;101240.90;1677100;85;26760;-59
2022/05/12 09:17:43;;;;;;;7.25;2.67;;;;;;;26.45;30.87;101236.76;1677334;84;26490;-59
2022/05/12 09:20:13;;;;;;;13.78;3.37;;;;;;;26.72;29.96;101233.10;1677489;85;28162;-59
2022/05/12 09:22:41;;;;;;;12.05;3.22;;;;;;;27.15;30.54;101229.87;1677099;84;25799;-60
2022/05/12 09:25:11;;;;;;;11.88;4.03;;;;;;;27.64;29.25;101227.52;1677099;85;25554;-59
2022/05/12 09:27:40;;;;;;;7.80;3.00;;;;;;;28.06;28.39;101232.91;1676995;85;25820;-59
2022/05/12 09:30:11;;;;;;;5.65;2.60;;;;;;;28.42;28.49;101220.40;1670005;85;25514;-59
2022/05/12 09:32:40;;;;;;;5.95;2.45;;;;;;;28.70;27.44;101217.35;1724583;80;27467;-59
2022/05/12 09:35:24;;;;;;;7.62;3.00;;;;;;;29.12;27.82;101214.83;1745247;80;26454;-59
2022/05/12 09:37:53;;;;;;;16.05;3.72;;;;;;;29.64;27.71;101213.78;1734919;82;25805;-59
2022/05/12 09:40:37;;;;;;;12.60;3.30;;;;;;;30.06;26.78;101213.86;1745807;82;26396;-59
2022/05/12 09:43:25;;;;;;;14.55;4.00;;;;;;;30.42;26.82;101212.92;1748993;81;25729;-59
2022/05/12 09:46:22;;;;;;;10.32;3.05;;;;;;;30.81;24.79;101216.98;1736550;81;27543;-59
2022/05/12 09:48:50;;;;;;;7.92;2.92;;;;;;;30.76;23.85;101211.38;1728697;82;25952;-59
2022/05/12 09:51:34;;;;;;;10.82;3.02;;;;;;;30.94;24.82;101201.00;1735083;82;25757;-59
2022/05/12 09:54:26;;;;;;;10.65;3.90;;;;;;;31.25;24.20;101207.70;1742337;81;25955;-59
2022/05/12 09:57:04;;;;;;;7.72;2.62;;;;;;;31.67;24.39;101193.02;1742595;82;25907;-59
2022/05/12 09:59:33;;;;;;;31.87;3.95;;;;;;;32.10;22.86;101186.02;1739796;82;27466;-59
2022/05/12 10:08:27;;;;;;;15.10;2.77;;;;;;;32.93;21.90;101179.34;1759498;81;26474;-60
2022/05/12 10:11:03;;;;;;;;;;;;;;;33.49;21.32;101190.20;1762236;80;25720;-59
2022/05/12 10:13:46;;;;;;;8.55;2.42;;;;;;;33.73;20.34;101186.25;1766590;80;27451;-60
2022/05/12 10:16:17;;;;;;;9.35;2.30;;;;;;;34.06;20.55;101183.11;1761642;81;25714;-59
2022/05/12 10:18:56;;;;;;;6.65;2.33;;;;;;;33.87;20.39;101175.36;1741963;82;25783;-59
2022/05/12 10:21:36;;;;;;;9.75;2.20;;;;;;;34.17;19.56;101168.81;1748871;81;25748;-59
2022/05/12 10:24:27;;;;;;;10.98;1.87;;;;;;;34.53;20.20;101156.66;1765226;80;25754;-60
2022/05/12 10:27:09;;;;;;;9.80;2.12;;;;;;;34.82;19.01;101169.88;1681287;82;27521;-59
2022/05/12 10:30:14;;;;;;;8.68;2.25;;;;;;;34.88;19.00;101160.31;1728308;82;25781;-59
2022/05/12 10:33:08;;;;;;;7.55;2.25;;;;;;;35.38;18.57;101164.38;1747305;81;25775;-60
2022/05/12 10:35:43;;;;;;;5.03;1.87;;;;;;;36.03;18.77;101158.09;1695586;81;26860;-60
2022/05/12 10:38:15;;;;;;;3.40;1.72;;;;;;;36.52;16.49;101156.63;1759295;81;25470;-60
2022/05/12 10:40:56;;;;;;;10.80;1.75;;;;;;;36.64;16.51;101162.58;1759403;81;33241;-60
2022/05/12 10:43:34;;;;;;;4.25;2.10;;;;;;;36.77;16.98;101158.17;1733238;81;25706;-60
2022/05/12 10:46:15;;;;;;;6.45;2.10;;;;;;;36.89;16.59;101158.58;1754998;80;25791;-60
2022/05/12 10:48:56;;;;;;;10.05;2.92;;;;;;;36.80;16.21;101155.59;1779849;80;26345;-60
2022/05/12 10:51:37;;;;;;;3.98;1.75;;;;;;;36.71;16.65;101151.84;1780338;80;25771;-61
2022/05/12 10:54:15;;;;;;;10.08;1.82;;;;;;;37.10;16.50;101139.42;1779834;79;27419;-61
2022/05/12 10:56:50;;;;;;;5.92;1.57;;;;;;;36.73;15.65;101139.73;1762561;80;25716;-60
2022/05/12 10:59:34;;;;;;;14.23;2.15;;;;;;;36.09;16.43;101125.27;1743801;81;25808;-60
2022/05/12 11:02:32;;;;;;;8.75;2.20;;;;;;;36.44;17.19;101117.50;1712981;83;25853;-61
2022/05/12 11:05:37;;;;;;;6.03;1.82;;;;;;;37.00;16.33;101125.58;1685655;84;25806;-60
2022/05/12 11:08:18;;;;;;;5.17;1.90;;;;;;;37.35;15.81;101119.05;1713624;83;27481;-60
2022/05/12 11:11:02;;;;;;;3.05;1.60;;;;;;;37.53;16.09;101103.30;1684972;84;25703;-60
2022/05/12 11:13:36;;;;;;;3.85;2.30;;;;;;;38.28;15.26;101107.33;1702688;82;25764;-61
2022/05/12 11:16:21;;;;;;;10.65;2.10;;;;;;;38.61;14.55;101109.11;1684571;83;26088;-60
2022/05/12 11:19:19;;;;;;;7.95;1.80;;;;;;;38.79;14.51;101096.02;1691719;84;25782;-60
2022/05/12 11:21:59;;;;;;;6.42;1.65;;;;;;;39.04;14.51;101098.74;1691697;84;28300;-61
2022/05/12 11:24:31;;;;;;;5.03;1.60;;;;;;;39.27;13.48;101098.70;1724086;83;25788;-61
2022/05/12 11:27:46;;;;;;;14.65;2.30;;;;;;;39.39;13.55;101084.86;1666139;84;25508;-61
2022/05/12 11:30:37;;;;;;;12.43;1.98;;;;;;;39.42;13.83;101083.38;1724354;83;25727;-61
2022/05/12 11:33:24;;;;;;;7.03;1.60;;;;;;;39.41;13.25;101085.94;1710104;83;25783;-61
2022/05/12 11:35:54;;;;;;;4.47;1.60;;;;;;;39.30;12.49;101091.03;1720054;83;27503;-61
2022/05/12 11:38:42;;;;;;;3.67;1.50;;;;;;;39.35;12.57;101090.06;1720535;83;25518;-60
2022/05/12 11:41:36;;;;;;;5.40;1.40;;;;;;;39.47;12.84;101083.80;1720557;83;25788;-60
2022/05/12 11:44:34;;;;;;;5.33;1.50;;;;;;;39.25;12.72;101065.87;1720357;83;25874;-61
2022/05/12 11:47:48;;;;;;;6.55;1.55;;;;;;;39.61;12.89;101066.23;1716565;83;25815;-60
2022/05/12 11:50:48;;;;;;;5.70;2.00;;;;;;;39.70;12.84;101063.45;1714911;83;27549;-60
2022/05/12 11:53:27;;;;;;;5.55;1.57;;;;;;;39.71;12.26;101053.86;1715029;83;27223;-60
2022/05/12 11:56:08;;;;;;;4.62;1.67;;;;;;;39.99;12.09;101046.52;1715009;83;25826;-60
2022/05/12 11:58:43;;;;;;;5.47;2.02;;;;;;;40.52;11.89;101043.95;1715026;83;25879;-61
2022/05/12 12:01:27;;;;;;;8.33;1.57;;;;;;;40.67;11.90;101033.31;1714991;83;25767;-60
2022/05/12 12:03:58;;;;;;;7.17;1.50;;;;;;;40.97;11.35;101034.21;1715101;83;27466;-60
2022/05/12 12:06:42;;;;;;;3.70;1.15;;;;;;;41.28;11.69;101021.83;1715203;83;25779;-60
2022/05/12 12:09:34;;;;;;;6.35;1.80;;;;;;;41.76;11.44;101018.30;1714830;83;25772;-61